createdAt,value
2022-09-16T00:00:59.435Z,15.30
2022-09-16T00:03:27.342Z,16.30
2022-09-16T00:05:55.375Z,16.77
2022-09-16T00:08:23.198Z,17.23
2022-09-16T00:10:51.225Z,17.00
2022-09-16T00:13:19.296Z,17.02
2022-09-16T00:15:51.034Z,17.92
2022-09-16T00:18:20.629Z,16.77
2022-09-16T00:20:50.038Z,17.95
2022-09-16T00:23:19.222Z,18.33
2022-09-16T00:25:54.173Z,17.63
2022-09-16T00:28:22.473Z,18.50
2022-09-16T00:30:51.042Z,19.63
2022-09-16T00:33:19.300Z,19.48
2022-09-16T00:35:48.282Z,17.80
2022-09-16T00:38:16.409Z,18.85
2022-09-16T00:40:48.733Z,18.58
2022-09-16T00:43:18.394Z,17.95
2022-09-16T00:45:54.784Z,18.08
2022-09-16T00:50:52.456Z,18.30
2022-09-16T00:53:22.841Z,18.15
2022-09-16T00:55:51.572Z,18.20
2022-09-16T00:58:25.010Z,17.90
2022-09-16T01:00:53.216Z,18.38
2022-09-16T01:03:20.905Z,17.85
2022-09-16T01:05:48.716Z,18.85
2022-09-16T01:08:16.769Z,18.60
2022-09-16T01:10:44.593Z,18.25
2022-09-16T01:13:13.048Z,18.10
2022-09-16T01:15:43.931Z,18.80
2022-09-16T01:18:33.557Z,19.10
2022-09-16T01:21:01.760Z,18.30
2022-09-16T01:23:38.848Z,18.45
2022-09-16T01:26:34.051Z,19.38
2022-09-16T01:29:07.847Z,18.13
2022-09-16T01:31:47.559Z,18.33
2022-09-16T01:34:26.245Z,18.00
2022-09-16T01:37:29.993Z,18.42
2022-09-16T01:40:00.622Z,19.27
2022-09-16T01:42:42.752Z,21.35
2022-09-16T01:45:31.306Z,19.73
2022-09-16T01:48:09.080Z,20.30
2022-09-16T01:50:46.344Z,20.63
2022-09-16T01:53:39.947Z,21.95
2022-09-16T01:56:25.125Z,20.80
2022-09-16T01:59:00.906Z,23.02
2022-09-16T02:01:34.091Z,22.60
2022-09-16T02:04:08.735Z,22.63
2022-09-16T02:06:36.537Z,22.73
2022-09-16T02:09:17.020Z,23.58
2022-09-16T02:11:44.932Z,26.70
2022-09-16T02:14:14.393Z,27.30
2022-09-16T02:16:54.234Z,27.83
2022-09-16T02:19:26.807Z,28.02
2022-09-16T02:21:55.224Z,25.05
2022-09-16T02:24:23.236Z,24.45
2022-09-16T02:26:54.576Z,26.13
2022-09-16T02:29:24.278Z,23.55
2022-09-16T02:31:55.760Z,23.33
2022-09-16T02:34:32.849Z,22.88
2022-09-16T02:37:04.994Z,23.10
2022-09-16T02:39:34.108Z,23.40
2022-09-16T02:42:01.912Z,23.05
2022-09-16T02:44:29.910Z,22.92
2022-09-16T02:47:13.900Z,22.95
2022-09-16T02:49:56.757Z,21.95
2022-09-16T02:52:28.281Z,21.17
2022-09-16T02:55:05.937Z,21.15
2022-09-16T02:57:33.846Z,22.80
2022-09-16T03:00:01.929Z,21.05
2022-09-16T03:02:31.904Z,19.77
2022-09-16T03:05:00.798Z,18.98
2022-09-16T03:07:28.723Z,20.10
2022-09-16T03:09:56.425Z,19.27
2022-09-16T03:12:43.600Z,18.33
2022-09-16T03:17:59.002Z,19.08
2022-09-16T03:20:31.926Z,20.17
2022-09-16T03:23:24.447Z,19.80
2022-09-16T03:26:12.193Z,19.67
2022-09-16T03:28:43.664Z,22.15
2022-09-16T03:31:57.744Z,23.00
2022-09-16T03:34:36.084Z,22.52
2022-09-16T03:37:10.364Z,24.42
2022-09-16T03:39:39.083Z,23.20
2022-09-16T03:42:08.312Z,22.58
2022-09-16T03:44:37.364Z,23.58
2022-09-16T03:47:05.672Z,24.08
2022-09-16T03:49:33.738Z,23.08
2022-09-16T03:52:02.103Z,22.48
2022-09-16T03:54:30.174Z,21.02
2022-09-16T03:56:58.156Z,18.55
2022-09-16T03:59:26.188Z,17.17
2022-09-16T04:01:54.357Z,16.55
2022-09-16T04:04:22.730Z,17.73
2022-09-16T04:06:50.456Z,16.05
2022-09-16T04:09:18.513Z,15.57
2022-09-16T04:11:46.437Z,15.13
2022-09-16T04:14:16.972Z,15.00
2022-09-16T04:16:45.472Z,15.05
2022-09-16T04:19:13.837Z,14.75
2022-09-16T04:21:42.462Z,13.65
2022-09-16T04:24:13.082Z,14.32
2022-09-16T04:26:41.930Z,13.45
2022-09-16T04:29:09.760Z,12.68
2022-09-16T04:31:37.582Z,11.73
2022-09-16T04:34:05.529Z,12.05
2022-09-16T04:36:34.076Z,11.77
2022-09-16T04:39:01.937Z,11.30
2022-09-16T04:41:30.044Z,10.85
2022-09-16T04:43:58.874Z,11.18
2022-09-16T04:46:27.874Z,10.35
2022-09-16T04:48:55.958Z,10.25
2022-09-16T04:51:23.881Z,10.43
2022-09-16T04:53:51.939Z,9.70
2022-09-16T04:56:21.521Z,9.63
2022-09-16T04:58:50.659Z,9.32
2022-09-16T05:01:20.931Z,10.10
2022-09-16T05:03:50.880Z,9.40
2022-09-16T05:06:21.052Z,8.60
2022-09-16T05:08:50.024Z,8.07
2022-09-16T05:11:22.622Z,8.52
2022-09-16T05:13:50.575Z,8.25
2022-09-16T05:16:20.060Z,8.73
2022-09-16T05:18:48.932Z,8.75
2022-09-16T05:21:18.568Z,7.85
2022-09-16T05:23:47.430Z,7.40
2022-09-16T05:26:19.236Z,7.80
2022-09-16T05:28:47.178Z,7.63
2022-09-16T05:31:23.097Z,8.07
2022-09-16T05:34:01.982Z,7.78
2022-09-16T05:36:32.764Z,7.80
2022-09-16T05:41:50.458Z,9.00
2022-09-16T05:44:18.243Z,8.75
2022-09-16T05:46:48.219Z,8.00
2022-09-16T05:49:21.144Z,7.70
2022-09-16T05:51:49.680Z,8.70
2022-09-16T05:54:20.578Z,7.85
2022-09-16T05:56:48.450Z,8.02
2022-09-16T05:59:16.889Z,8.30
2022-09-16T06:01:44.997Z,8.23
2022-09-16T06:04:14.038Z,7.40
2022-09-16T06:06:46.339Z,7.43
2022-09-16T06:09:19.130Z,6.85
2022-09-16T06:11:50.620Z,7.10
2022-09-16T06:14:19.034Z,6.50
2022-09-16T06:16:46.921Z,6.53
2022-09-16T06:19:16.027Z,5.45
2022-09-16T06:21:44.474Z,5.75
2022-09-16T06:24:13.273Z,5.05
2022-09-16T06:26:42.691Z,4.45
2022-09-16T06:29:10.734Z,5.05
2022-09-16T06:31:38.744Z,4.40
2022-09-16T06:34:07.269Z,4.55
2022-09-16T06:36:38.604Z,4.65
2022-09-16T06:39:10.920Z,4.93
2022-09-16T06:41:39.087Z,4.80
2022-09-16T06:44:08.310Z,6.07
2022-09-16T06:46:36.250Z,4.35
2022-09-16T06:49:06.272Z,4.15
2022-09-16T06:51:34.512Z,4.53
2022-09-16T06:54:04.247Z,4.85
2022-09-16T06:56:34.158Z,4.50
2022-09-16T06:59:04.144Z,4.38
2022-09-16T07:01:32.859Z,4.32
2022-09-16T07:04:05.487Z,4.75
2022-09-16T07:06:58.276Z,5.00
2022-09-16T07:09:22.413Z,3.75
2022-09-16T07:11:50.815Z,4.05
2022-09-16T07:14:19.033Z,5.78
2022-09-16T07:16:48.101Z,3.95
2022-09-16T07:19:15.953Z,3.97
2022-09-16T07:21:44.008Z,4.65
2022-09-16T07:24:12.816Z,5.10
2022-09-16T07:26:41.493Z,4.82
2022-09-16T07:29:18.019Z,4.28
2022-09-16T07:31:46.918Z,4.10
2022-09-16T07:34:15.420Z,4.15
2022-09-16T07:36:46.286Z,5.32
2022-09-16T07:39:15.179Z,4.85
2022-09-16T07:41:43.881Z,4.35
2022-09-16T07:44:13.545Z,4.55
2022-09-16T07:46:41.507Z,4.30
2022-09-16T07:49:10.787Z,4.32
2022-09-16T07:51:38.705Z,4.30
2022-09-16T07:54:08.944Z,4.53
2022-09-16T07:56:39.730Z,4.45
2022-09-16T07:59:13.075Z,4.50
2022-09-16T08:01:44.248Z,4.88
2022-09-16T08:04:12.379Z,4.82
2022-09-16T08:06:40.410Z,5.13
2022-09-16T08:09:36.822Z,5.18
2022-09-16T08:11:58.678Z,6.55
2022-09-16T08:14:26.827Z,5.50
2022-09-16T08:16:55.065Z,5.13
2022-09-16T08:19:23.282Z,5.53
2022-09-16T08:21:51.732Z,5.45
2022-09-16T08:24:19.744Z,5.57
2022-09-16T08:26:47.749Z,5.43
2022-09-16T08:29:16.042Z,5.32
2022-09-16T08:31:44.418Z,5.57
2022-09-16T08:34:12.376Z,5.18
2022-09-16T08:36:40.986Z,5.38
2022-09-16T08:39:10.174Z,4.88
2022-09-16T08:41:40.869Z,5.53
2022-09-16T08:44:29.139Z,5.18
2022-09-16T08:47:04.389Z,5.13
2022-09-16T08:49:46.738Z,4.80
2022-09-16T08:52:35.437Z,4.43
2022-09-16T08:55:07.312Z,4.57
2022-09-16T08:57:40.319Z,4.75
2022-09-16T09:00:15.109Z,4.53
2022-09-16T09:03:11.405Z,4.72
2022-09-16T09:05:55.413Z,4.50
2022-09-16T09:08:33.138Z,5.00
2022-09-16T09:11:42.229Z,4.55
2022-09-16T09:14:45.156Z,6.13
2022-09-16T09:17:49.929Z,5.13
2022-09-16T09:20:27.073Z,4.75
2022-09-16T09:23:01.104Z,5.07
2022-09-16T09:26:01.119Z,5.90
2022-09-16T09:28:57.292Z,4.78
2022-09-16T09:31:46.660Z,5.07
2022-09-16T09:34:24.904Z,5.38
2022-09-16T09:37:30.476Z,5.63
2022-09-16T09:40:11.683Z,5.43
2022-09-16T09:42:47.742Z,4.85
2022-09-16T09:45:42.193Z,4.65
2022-09-16T09:48:15.429Z,5.28
2022-09-16T09:50:48.145Z,5.60
2022-09-16T09:53:38.505Z,5.55
2022-09-16T09:56:16.690Z,6.30
2022-09-16T09:59:15.749Z,5.85
2022-09-16T10:01:43.985Z,5.53
2022-09-16T10:04:15.602Z,5.45
2022-09-16T10:06:46.276Z,5.53
2022-09-16T10:09:15.212Z,5.22
2022-09-16T10:11:53.174Z,5.60
2022-09-16T10:14:29.872Z,5.80
2022-09-16T10:17:01.003Z,5.63
2022-09-16T10:19:29.740Z,5.88
2022-09-16T10:22:10.132Z,6.07
2022-09-16T10:24:44.705Z,7.88
2022-09-16T10:27:36.071Z,8.18
2022-09-16T10:30:05.666Z,8.55
2022-09-16T10:32:38.948Z,9.60
2022-09-16T10:35:08.413Z,8.98
2022-09-16T10:37:39.998Z,8.57
2022-09-16T10:40:16.118Z,8.18
2022-09-16T10:42:47.443Z,7.85
2022-09-16T10:45:48.383Z,7.95
2022-09-16T10:48:20.957Z,7.28
2022-09-16T10:50:57.577Z,7.68
2022-09-16T10:53:39.134Z,6.90
2022-09-16T10:56:18.304Z,7.22
2022-09-16T10:58:46.453Z,7.72
2022-09-16T11:01:26.046Z,7.50
2022-09-16T11:04:42.732Z,7.47
2022-09-16T11:07:23.298Z,7.88
2022-09-16T11:10:23.671Z,7.80
2022-09-16T11:12:59.861Z,7.97
2022-09-16T11:15:45.328Z,7.80
2022-09-16T11:18:18.805Z,9.73
2022-09-16T11:20:53.188Z,8.57
2022-09-16T11:23:41.395Z,8.30
2022-09-16T11:26:24.555Z,7.95
2022-09-16T11:29:16.452Z,8.73
2022-09-16T11:32:01.899Z,8.93
2022-09-16T11:34:54.908Z,8.38
2022-09-16T11:37:41.392Z,8.43
2022-09-16T11:40:24.951Z,8.95
2022-09-16T11:43:01.120Z,8.60
2022-09-16T11:45:54.499Z,9.70
2022-09-16T11:48:47.528Z,9.32
2022-09-16T11:51:48.595Z,9.45
2022-09-16T11:54:27.297Z,10.02
2022-09-16T11:57:13.197Z,9.85
2022-09-16T12:00:02.747Z,10.07
2022-09-16T12:02:58.876Z,9.73
2022-09-16T12:05:42.088Z,9.30
2022-09-16T12:08:33.171Z,9.45
2022-09-16T12:11:17.111Z,8.70
2022-09-16T12:14:06.093Z,8.88
2022-09-16T12:16:45.559Z,8.38
2022-09-16T12:19:39.246Z,9.73
2022-09-16T12:22:20.421Z,8.50
2022-09-16T12:25:13.971Z,8.20
2022-09-16T12:27:48.610Z,7.70
2022-09-16T12:30:28.825Z,7.57
2022-09-16T12:33:02.253Z,6.95
2022-09-16T12:35:38.829Z,7.30
2022-09-16T12:38:17.227Z,6.65
2022-09-16T12:41:11.477Z,4.95
2022-09-16T12:43:42.753Z,5.45
2022-09-16T12:46:30.166Z,4.90
2022-09-16T12:48:58.147Z,4.45
2022-09-16T12:51:45.898Z,4.10
2022-09-16T12:55:07.695Z,4.70
2022-09-16T12:58:24.728Z,4.75
2022-09-16T13:01:05.136Z,4.38
2022-09-16T13:06:15.472Z,5.70
2022-09-16T13:08:43.515Z,6.07
2022-09-16T13:12:16.486Z,6.32
2022-09-16T13:14:23.340Z,6.47
2022-09-16T13:16:58.445Z,7.28
2022-09-16T13:19:39.447Z,7.30
2022-09-16T13:22:24.991Z,6.53
2022-09-16T13:25:08.141Z,7.03
2022-09-16T13:27:40.411Z,5.97
2022-09-16T13:30:12.169Z,5.20
2022-09-16T13:32:44.985Z,5.13
2022-09-16T13:35:19.567Z,5.10
2022-09-16T13:37:55.515Z,4.47
2022-09-16T13:43:03.585Z,4.88
2022-09-16T13:45:35.319Z,5.20
2022-09-16T13:48:16.717Z,4.68
2022-09-16T13:50:51.042Z,4.45
2022-09-16T13:53:43.298Z,4.70
2022-09-16T13:56:14.190Z,4.80
2022-09-16T13:59:03.067Z,4.60
2022-09-16T14:01:59.589Z,4.72
2022-09-16T14:04:56.391Z,4.22
2022-09-16T14:07:39.398Z,4.00
2022-09-16T14:10:14.450Z,4.47
2022-09-16T14:13:10.467Z,4.60
2022-09-16T14:15:43.455Z,4.50
2022-09-16T14:18:13.510Z,4.43
2022-09-16T14:20:56.414Z,4.63
2022-09-16T14:23:26.129Z,5.05
2022-09-16T14:25:56.111Z,5.63
2022-09-16T14:28:28.498Z,5.70
2022-09-16T14:30:58.203Z,9.60
2022-09-16T14:33:32.075Z,5.65
2022-09-16T14:36:01.101Z,5.97
2022-09-16T14:38:46.050Z,5.57
2022-09-16T14:41:25.768Z,6.50
2022-09-16T14:43:54.150Z,6.72
2022-09-16T14:46:22.189Z,6.53
2022-09-16T14:48:51.748Z,6.78
2022-09-16T14:51:25.029Z,7.43
2022-09-16T14:54:11.721Z,7.30
2022-09-16T14:56:40.981Z,8.48
2022-09-16T14:59:12.253Z,10.05
2022-09-16T15:01:40.179Z,11.70
2022-09-16T15:04:14.924Z,10.98
2022-09-16T15:06:47.076Z,11.15
2022-09-16T15:09:19.782Z,11.82
2022-09-16T15:11:54.361Z,11.38
2022-09-16T15:14:23.004Z,10.57
2022-09-16T15:16:53.462Z,12.00
2022-09-16T15:19:24.915Z,11.50
2022-09-16T15:21:53.042Z,11.15
2022-09-16T15:24:23.258Z,10.77
2022-09-16T15:26:53.869Z,11.70
2022-09-16T15:29:29.975Z,11.45
2022-09-16T15:32:18.380Z,11.73
2022-09-16T15:34:46.573Z,12.70
2022-09-16T15:37:33.853Z,11.50
2022-09-16T15:40:28.400Z,12.40
2022-09-16T15:43:14.132Z,10.77
2022-09-16T15:45:44.460Z,10.48
2022-09-16T15:48:18.912Z,11.55
2022-09-16T15:50:48.386Z,9.82
2022-09-16T15:53:21.412Z,8.23
2022-09-16T15:55:59.483Z,6.85
2022-09-16T15:58:40.025Z,6.50
2022-09-16T16:01:10.734Z,6.75
2022-09-16T16:03:45.058Z,5.82
2022-09-16T16:06:14.171Z,6.85
2022-09-16T16:08:47.131Z,5.57
2022-09-16T16:11:20.201Z,6.40
2022-09-16T16:13:51.366Z,6.65
2022-09-16T16:16:19.832Z,7.10
2022-09-16T16:18:48.924Z,6.72
2022-09-16T16:21:17.178Z,7.90
2022-09-16T16:23:45.774Z,6.60
2022-09-16T16:26:16.944Z,6.28
2022-09-16T16:28:47.208Z,6.68
2022-09-16T16:31:16.711Z,6.47
2022-09-16T16:33:45.447Z,6.53
2022-09-16T16:36:17.838Z,6.80
2022-09-16T16:38:46.695Z,6.32
2022-09-16T16:41:21.899Z,7.00
2022-09-16T16:43:53.474Z,6.97
2022-09-16T16:46:21.571Z,7.30
2022-09-16T16:48:50.839Z,6.70
2022-09-16T16:51:21.232Z,7.63
2022-09-16T16:53:59.336Z,7.25
2022-09-16T16:56:49.110Z,7.20
2022-09-16T16:59:18.570Z,8.93
2022-09-16T17:01:57.607Z,7.15
2022-09-16T17:04:45.198Z,7.35
2022-09-16T17:07:32.588Z,9.02
2022-09-16T17:10:05.160Z,7.70
2022-09-16T17:12:36.533Z,8.53
2022-09-16T17:15:11.389Z,7.93
2022-09-16T17:17:50.109Z,8.35
2022-09-16T17:21:04.345Z,8.35
2022-09-16T17:23:47.315Z,8.18
2022-09-16T17:26:35.789Z,9.02
2022-09-16T17:29:19.948Z,8.15
2022-09-16T17:34:41.820Z,8.07
2022-09-16T17:37:13.590Z,7.97
2022-09-16T17:40:07.258Z,7.72
2022-09-16T17:43:02.064Z,7.45
2022-09-16T17:45:33.128Z,8.85
2022-09-16T17:48:04.926Z,7.75
2022-09-16T17:50:39.441Z,8.63
2022-09-16T17:53:24.424Z,7.85
2022-09-16T17:59:22.132Z,8.27
2022-09-16T18:01:52.030Z,8.50
2022-09-16T18:04:19.890Z,11.30
2022-09-16T18:06:48.002Z,9.35
2022-09-16T18:09:17.280Z,9.13
2022-09-16T18:11:47.364Z,10.05
2022-09-16T18:14:17.284Z,9.02
2022-09-16T18:16:49.147Z,10.73
2022-09-16T18:19:16.954Z,8.75
2022-09-16T18:21:45.058Z,8.95
2022-09-16T18:24:13.215Z,8.98
2022-09-16T18:26:42.362Z,8.75
2022-09-16T18:29:12.384Z,9.45
2022-09-16T18:31:44.936Z,9.82
2022-09-16T18:34:19.244Z,12.27
2022-09-16T18:36:52.597Z,9.60
2022-09-16T18:39:25.996Z,10.82
2022-09-16T18:41:56.544Z,9.93
2022-09-16T18:44:29.842Z,9.90
2022-09-16T18:47:00.021Z,10.43
2022-09-16T18:49:52.242Z,10.25
2022-09-16T18:52:22.228Z,10.07
2022-09-16T18:54:54.700Z,10.55
2022-09-16T18:57:28.574Z,10.20
2022-09-16T18:59:56.763Z,10.13
2022-09-16T19:02:24.718Z,10.13
2022-09-16T19:04:52.991Z,10.10
2022-09-16T19:07:24.919Z,10.13
2022-09-16T19:09:55.377Z,10.00
2022-09-16T19:12:23.518Z,11.35
2022-09-16T19:14:54.593Z,11.95
2022-09-16T19:17:23.380Z,12.07
2022-09-16T19:19:53.408Z,12.18
2022-09-16T19:22:21.470Z,13.38
2022-09-16T19:24:49.355Z,11.77
2022-09-16T19:27:18.567Z,12.73
2022-09-16T19:29:48.012Z,12.98
2022-09-16T19:32:16.362Z,13.43
2022-09-16T19:34:45.890Z,13.15
2022-09-16T19:37:13.646Z,15.00
2022-09-16T19:39:41.554Z,12.73
2022-09-16T19:42:09.945Z,13.77
2022-09-16T19:44:49.637Z,14.85
2022-09-16T19:47:25.734Z,13.27
2022-09-16T19:49:58.060Z,14.23
2022-09-16T19:52:26.443Z,13.98
2022-09-16T19:54:57.805Z,14.35
2022-09-16T19:57:27.041Z,13.63
2022-09-16T19:59:58.176Z,12.68
2022-09-16T20:02:30.044Z,12.65
2022-09-16T20:05:00.600Z,13.57
2022-09-16T20:07:37.915Z,13.65
2022-09-16T20:10:07.439Z,14.25
2022-09-16T20:12:36.942Z,13.85
2022-09-16T20:15:05.612Z,15.05
2022-09-16T20:17:38.486Z,15.02
2022-09-16T20:20:08.690Z,14.68
2022-09-16T20:22:38.000Z,15.10
2022-09-16T20:25:22.434Z,15.88
2022-09-16T20:27:52.206Z,15.98
2022-09-16T20:30:21.907Z,15.60
2022-09-16T20:32:50.573Z,17.08
2022-09-16T20:35:18.673Z,17.23
2022-09-16T20:37:47.030Z,16.55
2022-09-16T20:40:15.318Z,18.27
2022-09-16T20:42:46.161Z,19.33
2022-09-16T20:45:15.619Z,18.65
2022-09-16T20:48:05.983Z,18.15
2022-09-16T20:50:40.064Z,18.92
2022-09-16T20:53:10.038Z,19.58
2022-09-16T20:55:40.079Z,21.65
2022-09-16T20:58:11.593Z,22.95
2022-09-16T21:00:42.220Z,22.25
2022-09-16T21:03:25.460Z,24.20
2022-09-16T21:05:53.434Z,23.05
2022-09-16T21:08:22.549Z,23.45
2022-09-16T21:10:50.806Z,22.42
2022-09-16T21:13:20.769Z,23.20
2022-09-16T21:16:01.637Z,25.83
2022-09-16T21:18:48.094Z,27.50
2022-09-16T21:21:44.248Z,26.55
2022-09-16T21:24:16.391Z,27.33
2022-09-16T21:26:44.812Z,26.05
2022-09-16T21:29:18.527Z,27.48
2022-09-16T21:31:46.656Z,25.67
2022-09-16T21:34:19.194Z,25.95
2022-09-16T21:36:47.489Z,24.50
2022-09-16T21:39:18.723Z,26.77
2022-09-16T21:41:47.288Z,26.88
2022-09-16T21:44:15.206Z,29.20
2022-09-16T21:46:45.590Z,27.23
2022-09-16T21:49:24.432Z,28.48
2022-09-16T21:51:53.843Z,28.35
2022-09-16T21:54:21.950Z,28.77
2022-09-16T21:56:50.060Z,28.25
2022-09-16T21:59:20.134Z,27.92
2022-09-16T22:01:51.437Z,28.15
2022-09-16T22:04:39.459Z,27.73
2022-09-16T22:07:16.192Z,27.90
2022-09-16T22:09:51.758Z,28.40
2022-09-16T22:12:30.080Z,28.90
2022-09-16T22:15:12.727Z,29.05
2022-09-16T22:18:05.505Z,28.05
2022-09-16T22:21:09.264Z,28.35
2022-09-16T22:24:08.436Z,27.60
2022-09-16T22:27:35.157Z,26.17
2022-09-16T22:30:04.176Z,28.85
2022-09-16T22:32:32.858Z,27.10
2022-09-16T22:35:05.136Z,27.98
2022-09-16T22:37:34.459Z,28.05
2022-09-16T22:40:03.388Z,28.75
2022-09-16T22:42:32.725Z,29.45
2022-09-16T22:45:00.873Z,29.42
2022-09-16T22:47:31.112Z,28.77
2022-09-16T22:50:00.069Z,30.85
2022-09-16T22:52:41.060Z,32.20
2022-09-16T22:55:44.178Z,35.28
2022-09-16T22:58:13.861Z,36.28
2022-09-16T23:01:05.064Z,37.42
2022-09-16T23:03:36.285Z,35.95
2022-09-16T23:06:17.634Z,35.78
2022-09-16T23:08:49.443Z,37.65
2022-09-16T23:11:32.976Z,36.33
2022-09-16T23:14:03.851Z,36.17
2022-09-16T23:16:35.612Z,33.13
2022-09-16T23:19:10.248Z,34.33
2022-09-16T23:21:41.547Z,33.90
2022-09-16T23:24:16.152Z,32.38
2022-09-16T23:26:44.838Z,32.10
2022-09-16T23:29:16.731Z,32.75
2022-09-16T23:31:46.162Z,32.08
2022-09-16T23:34:19.795Z,31.92
2022-09-16T23:36:55.730Z,29.98
2022-09-16T23:39:25.047Z,29.33
2022-09-16T23:41:53.059Z,29.65
2022-09-16T23:44:26.017Z,29.25
2022-09-16T23:46:57.282Z,30.15
2022-09-16T23:49:25.832Z,30.35
2022-09-16T23:51:54.460Z,32.13
2022-09-16T23:54:24.780Z,30.30
2022-09-16T23:56:52.866Z,29.15
2022-09-16T23:59:20.728Z,27.95
